sensor_id;sensor_type;location;lat;lon;timestamp;P1;durP1;ratioP1;P2;durP2;ratioP2
44189;SDS011;29856;52.144;5.430;2022-08-19T00:01:40;6.82;;;3.97;;
44189;SDS011;29856;52.144;5.430;2022-08-19T00:04:08;6.78;;;5.28;;
44189;SDS011;29856;52.144;5.430;2022-08-19T00:06:36;5.35;;;3.78;;
44189;SDS011;29856;52.144;5.430;2022-08-19T00:09:03;7.47;;;3.40;;
44189;SDS011;29856;52.144;5.430;2022-08-19T00:11:30;4.53;;;3.50;;
44189;SDS011;29856;52.144;5.430;2022-08-19T00:13:55;4.97;;;4.47;;
44189;SDS011;29856;52.144;5.430;2022-08-19T00:16:21;7.25;;;3.80;;
44189;SDS011;29856;52.144;5.430;2022-08-19T00:18:48;7.60;;;4.35;;
44189;SDS011;29856;52.144;5.430;2022-08-19T00:21:14;3.97;;;3.22;;
44189;SDS011;29856;52.144;5.430;2022-08-19T00:23:40;5.60;;;4.20;;
44189;SDS011;29856;52.144;5.430;2022-08-19T00:26:06;5.70;;;4.60;;
44189;SDS011;29856;52.144;5.430;2022-08-19T00:28:32;7.65;;;4.65;;
44189;SDS011;29856;52.144;5.430;2022-08-19T00:30:58;4.97;;;4.32;;
44189;SDS011;29856;52.144;5.430;2022-08-19T00:33:24;5.65;;;4.53;;
44189;SDS011;29856;52.144;5.430;2022-08-19T00:35:50;5.68;;;4.30;;
44189;SDS011;29856;52.144;5.430;2022-08-19T00:38:16;4.30;;;3.90;;
44189;SDS011;29856;52.144;5.430;2022-08-19T00:40:42;5.18;;;4.75;;
44189;SDS011;29856;52.144;5.430;2022-08-19T00:43:10;4.72;;;3.72;;
44189;SDS011;29856;52.144;5.430;2022-08-19T00:45:35;5.63;;;3.50;;
44189;SDS011;29856;52.144;5.430;2022-08-19T00:48:01;6.28;;;3.10;;
44189;SDS011;29856;52.144;5.430;2022-08-19T00:50:28;5.55;;;4.53;;
44189;SDS011;29856;52.144;5.430;2022-08-19T00:52:53;7.30;;;4.05;;
44189;SDS011;29856;52.144;5.430;2022-08-19T00:55:20;4.93;;;3.58;;
44189;SDS011;29856;52.144;5.430;2022-08-19T00:57:53;5.65;;;3.50;;
44189;SDS011;29856;52.144;5.430;2022-08-19T01:00:23;6.18;;;3.65;;
44189;SDS011;29856;52.144;5.430;2022-08-19T01:02:49;7.07;;;2.95;;
44189;SDS011;29856;52.144;5.430;2022-08-19T01:05:16;4.90;;;3.90;;
44189;SDS011;29856;52.144;5.430;2022-08-19T01:07:46;10.57;;;4.32;;
44189;SDS011;29856;52.144;5.430;2022-08-19T01:10:14;7.00;;;4.93;;
44189;SDS011;29856;52.144;5.430;2022-08-19T01:12:42;4.22;;;3.83;;
44189;SDS011;29856;52.144;5.430;2022-08-19T01:15:09;5.97;;;3.67;;
44189;SDS011;29856;52.144;5.430;2022-08-19T01:17:38;5.38;;;3.80;;
44189;SDS011;29856;52.144;5.430;2022-08-19T01:20:04;4.50;;;4.10;;
44189;SDS011;29856;52.144;5.430;2022-08-19T01:22:44;5.95;;;4.93;;
44189;SDS011;29856;52.144;5.430;2022-08-19T01:25:14;8.73;;;3.58;;
44189;SDS011;29856;52.144;5.430;2022-08-19T01:27:41;3.50;;;3.20;;
44189;SDS011;29856;52.144;5.430;2022-08-19T01:30:10;4.65;;;3.78;;
44189;SDS011;29856;52.144;5.430;2022-08-19T01:32:38;4.95;;;4.55;;
44189;SDS011;29856;52.144;5.430;2022-08-19T01:35:04;4.90;;;4.45;;
44189;SDS011;29856;52.144;5.430;2022-08-19T01:37:30;5.38;;;4.32;;
44189;SDS011;29856;52.144;5.430;2022-08-19T01:40:06;6.60;;;5.20;;
44189;SDS011;29856;52.144;5.430;2022-08-19T01:42:32;5.40;;;3.80;;
44189;SDS011;29856;52.144;5.430;2022-08-19T01:44:57;6.95;;;3.70;;
44189;SDS011;29856;52.144;5.430;2022-08-19T01:47:23;4.07;;;3.58;;
44189;SDS011;29856;52.144;5.430;2022-08-19T01:49:48;3.80;;;3.42;;
44189;SDS011;29856;52.144;5.430;2022-08-19T01:52:14;4.28;;;3.90;;
44189;SDS011;29856;52.144;5.430;2022-08-19T01:54:39;8.02;;;5.15;;
44189;SDS011;29856;52.144;5.430;2022-08-19T01:57:07;5.68;;;4.90;;
44189;SDS011;29856;52.144;5.430;2022-08-19T01:59:35;5.22;;;4.72;;
44189;SDS011;29856;52.144;5.430;2022-08-19T02:02:00;6.40;;;4.38;;
44189;SDS011;29856;52.144;5.430;2022-08-19T02:04:26;5.85;;;5.10;;
44189;SDS011;29856;52.144;5.430;2022-08-19T02:06:51;6.00;;;4.90;;
44189;SDS011;29856;52.144;5.430;2022-08-19T02:09:17;6.15;;;4.40;;
44189;SDS011;29856;52.144;5.430;2022-08-19T02:11:42;4.53;;;3.90;;
44189;SDS011;29856;52.144;5.430;2022-08-19T02:14:08;7.78;;;3.53;;
44189;SDS011;29856;52.144;5.430;2022-08-19T02:16:34;3.53;;;3.13;;
44189;SDS011;29856;52.144;5.430;2022-08-19T02:19:00;7.95;;;3.55;;
44189;SDS011;29856;52.144;5.430;2022-08-19T02:21:27;5.07;;;3.88;;
44189;SDS011;29856;52.144;5.430;2022-08-19T02:23:53;4.75;;;3.22;;
44189;SDS011;29856;52.144;5.430;2022-08-19T02:26:18;2.63;;;2.42;;
44189;SDS011;29856;52.144;5.430;2022-08-19T02:28:44;2.25;;;2.10;;
44189;SDS011;29856;52.144;5.430;2022-08-19T02:31:11;4.95;;;2.88;;
44189;SDS011;29856;52.144;5.430;2022-08-19T02:33:38;3.40;;;2.60;;
44189;SDS011;29856;52.144;5.430;2022-08-19T02:36:04;4.82;;;2.42;;
44189;SDS011;29856;52.144;5.430;2022-08-19T02:38:30;4.03;;;2.38;;
44189;SDS011;29856;52.144;5.430;2022-08-19T02:40:57;8.82;;;3.45;;
44189;SDS011;29856;52.144;5.430;2022-08-19T02:43:29;4.63;;;3.10;;
44189;SDS011;29856;52.144;5.430;2022-08-19T02:45:56;5.57;;;2.97;;
44189;SDS011;29856;52.144;5.430;2022-08-19T02:48:23;5.20;;;3.30;;
44189;SDS011;29856;52.144;5.430;2022-08-19T02:50:51;6.47;;;3.15;;
44189;SDS011;29856;52.144;5.430;2022-08-19T02:53:17;5.20;;;3.67;;
44189;SDS011;29856;52.144;5.430;2022-08-19T02:55:44;5.55;;;3.20;;
44189;SDS011;29856;52.144;5.430;2022-08-19T02:58:11;5.13;;;3.47;;
44189;SDS011;29856;52.144;5.430;2022-08-19T03:00:42;7.82;;;5.85;;
44189;SDS011;29856;52.144;5.430;2022-08-19T03:03:14;6.82;;;5.00;;
44189;SDS011;29856;52.144;5.430;2022-08-19T03:05:40;7.18;;;5.28;;
44189;SDS011;29856;52.144;5.430;2022-08-19T03:08:06;7.10;;;6.43;;
44189;SDS011;29856;52.144;5.430;2022-08-19T03:10:32;11.25;;;7.60;;
44189;SDS011;29856;52.144;5.430;2022-08-19T03:12:58;10.43;;;7.13;;
44189;SDS011;29856;52.144;5.430;2022-08-19T03:15:23;6.68;;;5.85;;
44189;SDS011;29856;52.144;5.430;2022-08-19T03:17:49;5.50;;;4.75;;
44189;SDS011;29856;52.144;5.430;2022-08-19T03:20:14;3.45;;;3.00;;
44189;SDS011;29856;52.144;5.430;2022-08-19T03:22:39;5.40;;;2.47;;
44189;SDS011;29856;52.144;5.430;2022-08-19T03:25:05;4.22;;;2.28;;
44189;SDS011;29856;52.144;5.430;2022-08-19T03:27:31;5.07;;;3.15;;
44189;SDS011;29856;52.144;5.430;2022-08-19T03:29:56;4.88;;;3.00;;
44189;SDS011;29856;52.144;5.430;2022-08-19T03:32:21;3.28;;;3.00;;
44189;SDS011;29856;52.144;5.430;2022-08-19T03:34:47;4.88;;;3.05;;
44189;SDS011;29856;52.144;5.430;2022-08-19T03:37:13;3.38;;;3.15;;
44189;SDS011;29856;52.144;5.430;2022-08-19T03:39:39;5.75;;;4.13;;
44189;SDS011;29856;52.144;5.430;2022-08-19T03:42:05;4.80;;;2.83;;
44189;SDS011;29856;52.144;5.430;2022-08-19T03:44:31;4.10;;;3.67;;
44189;SDS011;29856;52.144;5.430;2022-08-19T03:46:57;5.22;;;3.95;;
44189;SDS011;29856;52.144;5.430;2022-08-19T03:49:31;5.72;;;4.95;;
44189;SDS011;29856;52.144;5.430;2022-08-19T03:51:57;6.18;;;5.55;;
44189;SDS011;29856;52.144;5.430;2022-08-19T03:54:24;6.10;;;4.60;;
44189;SDS011;29856;52.144;5.430;2022-08-19T03:56:51;6.22;;;5.15;;
44189;SDS011;29856;52.144;5.430;2022-08-19T03:59:23;5.75;;;4.68;;
44189;SDS011;29856;52.144;5.430;2022-08-19T04:01:54;6.40;;;4.57;;
44189;SDS011;29856;52.144;5.430;2022-08-19T04:04:21;6.25;;;3.80;;
44189;SDS011;29856;52.144;5.430;2022-08-19T04:06:46;3.92;;;3.63;;
44189;SDS011;29856;52.144;5.430;2022-08-19T04:09:12;5.60;;;5.10;;
44189;SDS011;29856;52.144;5.430;2022-08-19T04:11:40;10.35;;;7.43;;
44189;SDS011;29856;52.144;5.430;2022-08-19T04:14:09;7.38;;;6.68;;
44189;SDS011;29856;52.144;5.430;2022-08-19T04:16:36;10.40;;;6.82;;
44189;SDS011;29856;52.144;5.430;2022-08-19T04:19:03;8.52;;;7.68;;
44189;SDS011;29856;52.144;5.430;2022-08-19T04:21:29;7.63;;;5.85;;
44189;SDS011;29856;52.144;5.430;2022-08-19T04:23:55;8.57;;;5.10;;
44189;SDS011;29856;52.144;5.430;2022-08-19T04:26:23;9.00;;;6.32;;
44189;SDS011;29856;52.144;5.430;2022-08-19T04:28:50;9.40;;;8.32;;
44189;SDS011;29856;52.144;5.430;2022-08-19T04:31:27;9.10;;;8.20;;
44189;SDS011;29856;52.144;5.430;2022-08-19T04:33:58;10.93;;;9.30;;
44189;SDS011;29856;52.144;5.430;2022-08-19T04:36:26;8.85;;;7.80;;
44189;SDS011;29856;52.144;5.430;2022-08-19T04:38:54;9.32;;;8.13;;
44189;SDS011;29856;52.144;5.430;2022-08-19T04:41:22;11.43;;;8.73;;
44189;SDS011;29856;52.144;5.430;2022-08-19T04:43:48;11.73;;;10.25;;
44189;SDS011;29856;52.144;5.430;2022-08-19T04:46:13;12.85;;;11.65;;
44189;SDS011;29856;52.144;5.430;2022-08-19T04:48:39;89.53;;;12.68;;
44189;SDS011;29856;52.144;5.430;2022-08-19T04:51:08;56.72;;;11.57;;
44189;SDS011;29856;52.144;5.430;2022-08-19T04:53:36;39.88;;;10.35;;
44189;SDS011;29856;52.144;5.430;2022-08-19T04:56:08;10.63;;;8.57;;
44189;SDS011;29856;52.144;5.430;2022-08-19T04:58:36;24.67;;;11.93;;
44189;SDS011;29856;52.144;5.430;2022-08-19T05:01:03;15.52;;;10.55;;
44189;SDS011;29856;52.144;5.430;2022-08-19T05:03:29;13.63;;;11.40;;
44189;SDS011;29856;52.144;5.430;2022-08-19T05:05:55;10.38;;;9.38;;
44189;SDS011;29856;52.144;5.430;2022-08-19T05:08:21;12.70;;;11.40;;
44189;SDS011;29856;52.144;5.430;2022-08-19T05:10:47;11.20;;;9.98;;
44189;SDS011;29856;52.144;5.430;2022-08-19T05:13:14;11.13;;;10.10;;
44189;SDS011;29856;52.144;5.430;2022-08-19T05:15:42;11.88;;;10.68;;
44189;SDS011;29856;52.144;5.430;2022-08-19T05:18:08;9.90;;;9.00;;
44189;SDS011;29856;52.144;5.430;2022-08-19T05:20:34;11.32;;;10.23;;
44189;SDS011;29856;52.144;5.430;2022-08-19T05:23:03;10.82;;;9.73;;
44189;SDS011;29856;52.144;5.430;2022-08-19T05:25:28;10.80;;;9.68;;
44189;SDS011;29856;52.144;5.430;2022-08-19T05:27:54;11.05;;;9.15;;
44189;SDS011;29856;52.144;5.430;2022-08-19T05:30:19;11.45;;;10.25;;
44189;SDS011;29856;52.144;5.430;2022-08-19T05:32:45;12.10;;;10.80;;
44189;SDS011;29856;52.144;5.430;2022-08-19T05:35:10;11.57;;;10.38;;
44189;SDS011;29856;52.144;5.430;2022-08-19T05:37:36;12.13;;;8.38;;
44189;SDS011;29856;52.144;5.430;2022-08-19T05:40:02;13.27;;;9.07;;
44189;SDS011;29856;52.144;5.430;2022-08-19T05:42:28;9.98;;;9.00;;
44189;SDS011;29856;52.144;5.430;2022-08-19T05:44:54;12.30;;;10.68;;
44189;SDS011;29856;52.144;5.430;2022-08-19T05:47:19;18.95;;;13.52;;
44189;SDS011;29856;52.144;5.430;2022-08-19T05:49:45;12.57;;;11.30;;
44189;SDS011;29856;52.144;5.430;2022-08-19T05:52:11;18.98;;;14.50;;
44189;SDS011;29856;52.144;5.430;2022-08-19T05:54:39;23.42;;;15.98;;
44189;SDS011;29856;52.144;5.430;2022-08-19T05:57:05;21.40;;;17.42;;
44189;SDS011;29856;52.144;5.430;2022-08-19T05:59:32;25.73;;;20.70;;
44189;SDS011;29856;52.144;5.430;2022-08-19T06:01:57;30.05;;;22.83;;
44189;SDS011;29856;52.144;5.430;2022-08-19T06:04:23;30.88;;;22.55;;
44189;SDS011;29856;52.144;5.430;2022-08-19T06:06:50;27.23;;;21.38;;
44189;SDS011;29856;52.144;5.430;2022-08-19T06:09:17;32.35;;;24.05;;
44189;SDS011;29856;52.144;5.430;2022-08-19T06:11:45;36.33;;;23.88;;
44189;SDS011;29856;52.144;5.430;2022-08-19T06:14:14;39.03;;;28.17;;
44189;SDS011;29856;52.144;5.430;2022-08-19T06:16:42;35.30;;;25.90;;
44189;SDS011;29856;52.144;5.430;2022-08-19T06:19:09;31.75;;;23.50;;
44189;SDS011;29856;52.144;5.430;2022-08-19T06:21:37;32.58;;;24.15;;
44189;SDS011;29856;52.144;5.430;2022-08-19T06:24:05;36.10;;;25.20;;
44189;SDS011;29856;52.144;5.430;2022-08-19T06:26:36;47.00;;;28.60;;
44189;SDS011;29856;52.144;5.430;2022-08-19T06:29:04;30.45;;;23.35;;
44189;SDS011;29856;52.144;5.430;2022-08-19T06:31:31;42.28;;;29.10;;
44189;SDS011;29856;52.144;5.430;2022-08-19T06:33:58;37.45;;;25.85;;
44189;SDS011;29856;52.144;5.430;2022-08-19T06:36:28;36.70;;;25.80;;
44189;SDS011;29856;52.144;5.430;2022-08-19T06:38:57;48.30;;;31.65;;
44189;SDS011;29856;52.144;5.430;2022-08-19T06:41:26;44.50;;;28.90;;
44189;SDS011;29856;52.144;5.430;2022-08-19T06:43:53;45.88;;;32.05;;
44189;SDS011;29856;52.144;5.430;2022-08-19T06:46:19;50.10;;;34.10;;
44189;SDS011;29856;52.144;5.430;2022-08-19T06:48:45;52.95;;;35.92;;
44189;SDS011;29856;52.144;5.430;2022-08-19T06:51:12;49.00;;;33.25;;
44189;SDS011;29856;52.144;5.430;2022-08-19T06:53:39;51.88;;;35.65;;
44189;SDS011;29856;52.144;5.430;2022-08-19T06:56:05;54.28;;;36.03;;
44189;SDS011;29856;52.144;5.430;2022-08-19T06:58:31;51.58;;;35.63;;
44189;SDS011;29856;52.144;5.430;2022-08-19T07:00:57;54.67;;;33.42;;
44189;SDS011;29856;52.144;5.430;2022-08-19T07:03:31;58.53;;;35.50;;
44189;SDS011;29856;52.144;5.430;2022-08-19T07:06:02;55.85;;;35.13;;
44189;SDS011;29856;52.144;5.430;2022-08-19T07:08:32;67.55;;;38.30;;
44189;SDS011;29856;52.144;5.430;2022-08-19T07:10:58;61.15;;;34.72;;
44189;SDS011;29856;52.144;5.430;2022-08-19T07:13:24;67.28;;;37.53;;
44189;SDS011;29856;52.144;5.430;2022-08-19T07:15:49;67.90;;;39.28;;
44189;SDS011;29856;52.144;5.430;2022-08-19T07:18:16;75.18;;;39.60;;
44189;SDS011;29856;52.144;5.430;2022-08-19T07:20:43;71.35;;;37.60;;
44189;SDS011;29856;52.144;5.430;2022-08-19T07:23:09;80.75;;;44.30;;
44189;SDS011;29856;52.144;5.430;2022-08-19T07:25:36;74.53;;;40.20;;
44189;SDS011;29856;52.144;5.430;2022-08-19T07:28:01;71.82;;;42.17;;
44189;SDS011;29856;52.144;5.430;2022-08-19T07:30:28;76.90;;;44.15;;
44189;SDS011;29856;52.144;5.430;2022-08-19T07:32:53;73.43;;;42.70;;
44189;SDS011;29856;52.144;5.430;2022-08-19T07:35:19;78.20;;;47.38;;
44189;SDS011;29856;52.144;5.430;2022-08-19T07:37:45;74.47;;;44.95;;
44189;SDS011;29856;52.144;5.430;2022-08-19T07:40:11;79.78;;;47.08;;
44189;SDS011;29856;52.144;5.430;2022-08-19T07:42:36;71.85;;;45.30;;
44189;SDS011;29856;52.144;5.430;2022-08-19T07:45:02;70.57;;;44.10;;
44189;SDS011;29856;52.144;5.430;2022-08-19T07:47:28;72.28;;;45.80;;
44189;SDS011;29856;52.144;5.430;2022-08-19T07:49:54;71.03;;;47.13;;
44189;SDS011;29856;52.144;5.430;2022-08-19T07:52:19;72.15;;;45.55;;
44189;SDS011;29856;52.144;5.430;2022-08-19T07:54:45;64.22;;;44.67;;
44189;SDS011;29856;52.144;5.430;2022-08-19T07:57:10;72.47;;;45.85;;
44189;SDS011;29856;52.144;5.430;2022-08-19T07:59:36;66.28;;;43.55;;
44189;SDS011;29856;52.144;5.430;2022-08-19T08:02:01;61.47;;;41.63;;
44189;SDS011;29856;52.144;5.430;2022-08-19T08:07:18;63.28;;;43.58;;
44189;SDS011;29856;52.144;5.430;2022-08-19T08:09:44;59.33;;;40.67;;
44189;SDS011;29856;52.144;5.430;2022-08-19T08:12:11;56.08;;;37.65;;
44189;SDS011;29856;52.144;5.430;2022-08-19T08:17:10;60.58;;;40.10;;
44189;SDS011;29856;52.144;5.430;2022-08-19T08:19:36;53.47;;;38.28;;
44189;SDS011;29856;52.144;5.430;2022-08-19T08:22:02;54.42;;;39.05;;
44189;SDS011;29856;52.144;5.430;2022-08-19T08:24:28;50.67;;;36.50;;
44189;SDS011;29856;52.144;5.430;2022-08-19T08:26:55;48.17;;;34.70;;
44189;SDS011;29856;52.144;5.430;2022-08-19T08:29:21;52.10;;;34.97;;
44189;SDS011;29856;52.144;5.430;2022-08-19T08:31:46;49.85;;;36.25;;
44189;SDS011;29856;52.144;5.430;2022-08-19T08:34:12;47.25;;;33.08;;
44189;SDS011;29856;52.144;5.430;2022-08-19T08:36:39;45.75;;;33.05;;
44189;SDS011;29856;52.144;5.430;2022-08-19T08:39:08;45.67;;;32.15;;
44189;SDS011;29856;52.144;5.430;2022-08-19T08:41:50;44.90;;;31.30;;
44189;SDS011;29856;52.144;5.430;2022-08-19T08:44:37;43.92;;;32.22;;
44189;SDS011;29856;52.144;5.430;2022-08-19T08:47:32;41.88;;;27.27;;
44189;SDS011;29856;52.144;5.430;2022-08-19T08:50:15;38.25;;;28.50;;
44189;SDS011;29856;52.144;5.430;2022-08-19T08:53:03;39.55;;;28.08;;
44189;SDS011;29856;52.144;5.430;2022-08-19T08:55:31;39.80;;;27.85;;
44189;SDS011;29856;52.144;5.430;2022-08-19T09:00:32;36.40;;;25.50;;
44189;SDS011;29856;52.144;5.430;2022-08-19T09:03:01;37.38;;;24.85;;
44189;SDS011;29856;52.144;5.430;2022-08-19T09:06:11;33.97;;;24.63;;
44189;SDS011;29856;52.144;5.430;2022-08-19T09:08:26;30.92;;;24.25;;
44189;SDS011;29856;52.144;5.430;2022-08-19T09:11:09;27.92;;;20.58;;
44189;SDS011;29856;52.144;5.430;2022-08-19T09:16:21;30.38;;;20.92;;
44189;SDS011;29856;52.144;5.430;2022-08-19T09:18:49;31.42;;;21.90;;
44189;SDS011;29856;52.144;5.430;2022-08-19T09:21:16;26.67;;;20.75;;
44189;SDS011;29856;52.144;5.430;2022-08-19T09:23:41;27.00;;;19.38;;
44189;SDS011;29856;52.144;5.430;2022-08-19T09:26:08;32.45;;;21.10;;
44189;SDS011;29856;52.144;5.430;2022-08-19T09:28:35;37.20;;;22.10;;
44189;SDS011;29856;52.144;5.430;2022-08-19T09:31:01;24.85;;;19.25;;
44189;SDS011;29856;52.144;5.430;2022-08-19T09:33:26;27.73;;;18.40;;
44189;SDS011;29856;52.144;5.430;2022-08-19T09:36:01;21.63;;;17.88;;
44189;SDS011;29856;52.144;5.430;2022-08-19T09:38:27;26.42;;;19.30;;
44189;SDS011;29856;52.144;5.430;2022-08-19T09:40:53;31.15;;;20.17;;
44189;SDS011;29856;52.144;5.430;2022-08-19T09:43:18;31.05;;;19.17;;
44189;SDS011;29856;52.144;5.430;2022-08-19T09:45:44;25.00;;;17.90;;
44189;SDS011;29856;52.144;5.430;2022-08-19T09:48:09;25.40;;;18.25;;
44189;SDS011;29856;52.144;5.430;2022-08-19T09:50:35;23.77;;;16.17;;
44189;SDS011;29856;52.144;5.430;2022-08-19T09:53:00;24.13;;;16.75;;
44189;SDS011;29856;52.144;5.430;2022-08-19T09:55:26;22.92;;;16.65;;
44189;SDS011;29856;52.144;5.430;2022-08-19T09:57:53;23.23;;;15.02;;
44189;SDS011;29856;52.144;5.430;2022-08-19T10:00:18;22.92;;;16.25;;
44189;SDS011;29856;52.144;5.430;2022-08-19T10:02:44;23.63;;;15.95;;
44189;SDS011;29856;52.144;5.430;2022-08-19T10:05:09;33.53;;;15.57;;
44189;SDS011;29856;52.144;5.430;2022-08-19T10:07:35;21.48;;;14.95;;
44189;SDS011;29856;52.144;5.430;2022-08-19T10:10:01;19.92;;;13.25;;
44189;SDS011;29856;52.144;5.430;2022-08-19T10:12:30;17.13;;;13.20;;
44189;SDS011;29856;52.144;5.430;2022-08-19T10:14:56;18.55;;;14.05;;
44189;SDS011;29856;52.144;5.430;2022-08-19T10:17:21;24.77;;;15.57;;
44189;SDS011;29856;52.144;5.430;2022-08-19T10:19:47;23.60;;;15.38;;
44189;SDS011;29856;52.144;5.430;2022-08-19T10:22:12;21.65;;;15.75;;
44189;SDS011;29856;52.144;5.430;2022-08-19T10:24:37;19.02;;;14.18;;
44189;SDS011;29856;52.144;5.430;2022-08-19T10:27:03;17.95;;;14.65;;
44189;SDS011;29856;52.144;5.430;2022-08-19T10:29:29;22.27;;;13.52;;
44189;SDS011;29856;52.144;5.430;2022-08-19T10:31:55;19.88;;;14.20;;
44189;SDS011;29856;52.144;5.430;2022-08-19T10:34:21;17.15;;;15.02;;
44189;SDS011;29856;52.144;5.430;2022-08-19T10:36:46;19.25;;;15.18;;
44189;SDS011;29856;52.144;5.430;2022-08-19T10:39:12;22.77;;;14.80;;
44189;SDS011;29856;52.144;5.430;2022-08-19T10:41:37;18.00;;;15.13;;
44189;SDS011;29856;52.144;5.430;2022-08-19T10:44:05;21.13;;;16.25;;
44189;SDS011;29856;52.144;5.430;2022-08-19T10:46:33;21.27;;;16.10;;
44189;SDS011;29856;52.144;5.430;2022-08-19T10:49:02;21.88;;;16.80;;
44189;SDS011;29856;52.144;5.430;2022-08-19T10:51:29;23.52;;;18.17;;
44189;SDS011;29856;52.144;5.430;2022-08-19T10:53:55;20.17;;;14.30;;
44189;SDS011;29856;52.144;5.430;2022-08-19T10:56:22;18.77;;;15.65;;
44189;SDS011;29856;52.144;5.430;2022-08-19T10:58:47;18.15;;;15.77;;
44189;SDS011;29856;52.144;5.430;2022-08-19T11:01:13;22.95;;;15.57;;
44189;SDS011;29856;52.144;5.430;2022-08-19T11:03:38;20.50;;;17.23;;
44189;SDS011;29856;52.144;5.430;2022-08-19T11:06:05;20.60;;;16.33;;
44189;SDS011;29856;52.144;5.430;2022-08-19T11:08:33;20.52;;;16.58;;
44189;SDS011;29856;52.144;5.430;2022-08-19T11:11:00;22.92;;;15.68;;
44189;SDS011;29856;52.144;5.430;2022-08-19T11:13:27;22.67;;;16.85;;
44189;SDS011;29856;52.144;5.430;2022-08-19T11:16:00;24.50;;;19.27;;
44189;SDS011;29856;52.144;5.430;2022-08-19T11:18:30;23.75;;;17.92;;
44189;SDS011;29856;52.144;5.430;2022-08-19T11:21:04;31.15;;;21.55;;
44189;SDS011;29856;52.144;5.430;2022-08-19T11:23:37;27.38;;;19.20;;
44189;SDS011;29856;52.144;5.430;2022-08-19T11:26:03;22.38;;;17.88;;
44189;SDS011;29856;52.144;5.430;2022-08-19T11:28:29;24.38;;;19.48;;
44189;SDS011;29856;52.144;5.430;2022-08-19T11:30:54;24.52;;;18.80;;
44189;SDS011;29856;52.144;5.430;2022-08-19T11:33:20;25.55;;;20.10;;
44189;SDS011;29856;52.144;5.430;2022-08-19T11:35:45;21.15;;;16.25;;
44189;SDS011;29856;52.144;5.430;2022-08-19T11:38:11;24.42;;;18.92;;
44189;SDS011;29856;52.144;5.430;2022-08-19T11:40:36;25.02;;;19.60;;
44189;SDS011;29856;52.144;5.430;2022-08-19T11:43:02;27.63;;;20.60;;
44189;SDS011;29856;52.144;5.430;2022-08-19T11:45:27;26.45;;;18.90;;
44189;SDS011;29856;52.144;5.430;2022-08-19T11:47:53;26.67;;;21.73;;
44189;SDS011;29856;52.144;5.430;2022-08-19T11:50:19;23.10;;;19.20;;
44189;SDS011;29856;52.144;5.430;2022-08-19T11:52:45;26.35;;;21.35;;
44189;SDS011;29856;52.144;5.430;2022-08-19T11:55:11;25.70;;;17.92;;
44189;SDS011;29856;52.144;5.430;2022-08-19T11:57:38;27.65;;;18.30;;
44189;SDS011;29856;52.144;5.430;2022-08-19T12:00:04;25.77;;;20.80;;
44189;SDS011;29856;52.144;5.430;2022-08-19T12:02:30;24.50;;;19.52;;
44189;SDS011;29856;52.144;5.430;2022-08-19T12:04:55;30.20;;;21.98;;
44189;SDS011;29856;52.144;5.430;2022-08-19T12:07:21;24.70;;;18.90;;
44189;SDS011;29856;52.144;5.430;2022-08-19T12:09:46;21.52;;;16.92;;
44189;SDS011;29856;52.144;5.430;2022-08-19T12:12:11;21.55;;;17.83;;
44189;SDS011;29856;52.144;5.430;2022-08-19T12:14:37;21.50;;;17.50;;
44189;SDS011;29856;52.144;5.430;2022-08-19T12:17:02;27.55;;;18.15;;
44189;SDS011;29856;52.144;5.430;2022-08-19T12:19:28;20.63;;;15.65;;
44189;SDS011;29856;52.144;5.430;2022-08-19T12:21:54;27.38;;;18.90;;
44189;SDS011;29856;52.144;5.430;2022-08-19T12:24:24;24.40;;;18.88;;
44189;SDS011;29856;52.144;5.430;2022-08-19T12:26:50;24.48;;;19.38;;
44189;SDS011;29856;52.144;5.430;2022-08-19T12:29:15;29.80;;;18.63;;
44189;SDS011;29856;52.144;5.430;2022-08-19T12:31:41;22.95;;;17.20;;
44189;SDS011;29856;52.144;5.430;2022-08-19T12:34:06;26.25;;;19.92;;
44189;SDS011;29856;52.144;5.430;2022-08-19T12:36:32;26.48;;;18.75;;
44189;SDS011;29856;52.144;5.430;2022-08-19T12:38:58;24.83;;;17.70;;
44189;SDS011;29856;52.144;5.430;2022-08-19T12:41:24;26.70;;;20.45;;
44189;SDS011;29856;52.144;5.430;2022-08-19T12:43:50;27.40;;;21.80;;
44189;SDS011;29856;52.144;5.430;2022-08-19T12:46:16;30.58;;;20.65;;
44189;SDS011;29856;52.144;5.430;2022-08-19T12:48:43;20.88;;;17.25;;
44189;SDS011;29856;52.144;5.430;2022-08-19T12:51:09;16.20;;;14.25;;
44189;SDS011;29856;52.144;5.430;2022-08-19T12:53:37;15.38;;;13.40;;
44189;SDS011;29856;52.144;5.430;2022-08-19T12:56:03;15.60;;;12.85;;
44189;SDS011;29856;52.144;5.430;2022-08-19T12:58:29;18.73;;;14.63;;
44189;SDS011;29856;52.144;5.430;2022-08-19T13:00:55;16.08;;;13.18;;
44189;SDS011;29856;52.144;5.430;2022-08-19T13:03:20;19.00;;;13.98;;
44189;SDS011;29856;52.144;5.430;2022-08-19T13:05:46;21.13;;;16.90;;
44189;SDS011;29856;52.144;5.430;2022-08-19T13:08:11;19.23;;;15.50;;
44189;SDS011;29856;52.144;5.430;2022-08-19T13:10:37;15.70;;;12.38;;
44189;SDS011;29856;52.144;5.430;2022-08-19T13:13:04;13.25;;;11.85;;
44189;SDS011;29856;52.144;5.430;2022-08-19T13:15:35;13.98;;;11.55;;
44189;SDS011;29856;52.144;5.430;2022-08-19T13:18:02;15.70;;;12.68;;
44189;SDS011;29856;52.144;5.430;2022-08-19T13:20:27;22.35;;;14.68;;
44189;SDS011;29856;52.144;5.430;2022-08-19T13:22:54;19.48;;;13.57;;
44189;SDS011;29856;52.144;5.430;2022-08-19T13:25:20;18.17;;;14.00;;
44189;SDS011;29856;52.144;5.430;2022-08-19T13:27:49;17.10;;;13.75;;
44189;SDS011;29856;52.144;5.430;2022-08-19T13:30:15;20.33;;;17.38;;
44189;SDS011;29856;52.144;5.430;2022-08-19T13:32:41;21.42;;;19.13;;
44189;SDS011;29856;52.144;5.430;2022-08-19T13:35:07;24.27;;;20.83;;
44189;SDS011;29856;52.144;5.430;2022-08-19T13:37:32;27.27;;;20.88;;
44189;SDS011;29856;52.144;5.430;2022-08-19T13:39:58;23.40;;;19.40;;
44189;SDS011;29856;52.144;5.430;2022-08-19T13:42:23;22.73;;;18.60;;
44189;SDS011;29856;52.144;5.430;2022-08-19T13:44:49;28.35;;;20.08;;
44189;SDS011;29856;52.144;5.430;2022-08-19T13:47:14;23.45;;;19.95;;
44189;SDS011;29856;52.144;5.430;2022-08-19T13:49:40;26.80;;;21.10;;
44189;SDS011;29856;52.144;5.430;2022-08-19T13:52:05;27.23;;;21.75;;
44189;SDS011;29856;52.144;5.430;2022-08-19T13:54:30;21.52;;;17.83;;
44189;SDS011;29856;52.144;5.430;2022-08-19T13:56:56;24.52;;;18.63;;
44189;SDS011;29856;52.144;5.430;2022-08-19T13:59:22;20.27;;;18.10;;
44189;SDS011;29856;52.144;5.430;2022-08-19T14:01:47;20.30;;;18.15;;
44189;SDS011;29856;52.144;5.430;2022-08-19T14:04:12;20.80;;;17.02;;
44189;SDS011;29856;52.144;5.430;2022-08-19T14:06:38;20.60;;;17.40;;
44189;SDS011;29856;52.144;5.430;2022-08-19T14:09:03;21.50;;;16.13;;
44189;SDS011;29856;52.144;5.430;2022-08-19T14:11:29;20.15;;;15.75;;
44189;SDS011;29856;52.144;5.430;2022-08-19T14:13:54;19.27;;;15.35;;
44189;SDS011;29856;52.144;5.430;2022-08-19T14:16:20;18.58;;;14.90;;
44189;SDS011;29856;52.144;5.430;2022-08-19T14:18:45;17.25;;;14.98;;
44189;SDS011;29856;52.144;5.430;2022-08-19T14:21:16;16.45;;;14.68;;
44189;SDS011;29856;52.144;5.430;2022-08-19T14:23:44;16.40;;;14.70;;
44189;SDS011;29856;52.144;5.430;2022-08-19T14:26:10;17.20;;;14.25;;
44189;SDS011;29856;52.144;5.430;2022-08-19T14:28:40;18.98;;;12.75;;
44189;SDS011;29856;52.144;5.430;2022-08-19T14:31:07;22.08;;;15.40;;
44189;SDS011;29856;52.144;5.430;2022-08-19T14:33:33;18.38;;;13.32;;
44189;SDS011;29856;52.144;5.430;2022-08-19T14:35:58;14.52;;;11.77;;
44189;SDS011;29856;52.144;5.430;2022-08-19T14:38:24;20.13;;;12.80;;
44189;SDS011;29856;52.144;5.430;2022-08-19T14:40:49;16.20;;;12.60;;